createdAt,value
2016-12-09T00:00:29.356Z,930.53
2016-12-09T00:01:39.835Z,930.51
2016-12-09T00:02:50.285Z,930.52
2016-12-09T00:04:00.737Z,930.58
2016-12-09T00:05:11.187Z,930.62
2016-12-09T00:06:21.685Z,930.68
2016-12-09T00:07:32.154Z,930.72
2016-12-09T00:08:42.634Z,930.71
2016-12-09T00:09:53.117Z,930.75
2016-12-09T00:11:03.617Z,930.72
2016-12-09T00:12:14.098Z,930.71
2016-12-09T00:13:24.604Z,930.69
2016-12-09T00:14:35.101Z,930.67
2016-12-09T00:15:45.858Z,930.62
2016-12-09T00:16:56.413Z,930.59
2016-12-09T00:18:06.977Z,930.64
2016-12-09T00:19:17.545Z,930.64
2016-12-09T00:20:28.107Z,930.65
2016-12-09T00:21:39.197Z,930.68
2016-12-09T00:22:49.749Z,930.69
2016-12-09T00:24:00.322Z,930.71
2016-12-09T00:25:10.888Z,930.73
2016-12-09T00:26:21.441Z,930.75
2016-12-09T00:27:32.200Z,930.79
2016-12-09T00:28:42.791Z,930.85
2016-12-09T00:29:53.366Z,930.9
2016-12-09T00:31:03.941Z,930.94
2016-12-09T00:32:14.529Z,930.97
2016-12-09T00:33:25.121Z,930.97
2016-12-09T00:34:35.699Z,930.96
2016-12-09T00:37:11.329Z,931.01
2016-12-09T00:38:21.889Z,931.02
2016-12-09T00:39:32.445Z,931.03
2016-12-09T00:40:42.999Z,931
2016-12-09T00:41:53.592Z,930.98
2016-12-09T00:43:04.179Z,930.98
2016-12-09T00:44:14.743Z,931
2016-12-09T00:45:25.306Z,931.03
2016-12-09T00:46:35.857Z,931.01
2016-12-09T00:47:46.827Z,931
2016-12-09T00:49:11.910Z,930.99
2016-12-09T00:50:22.670Z,930.96
2016-12-09T00:51:33.234Z,930.96
2016-12-09T00:52:43.795Z,930.92
2016-12-09T00:53:54.361Z,930.96
2016-12-09T00:55:05.144Z,930.96
2016-12-09T00:56:16.200Z,930.96
2016-12-09T00:57:26.755Z,930.99
2016-12-09T00:58:51.838Z,930.94
2016-12-09T01:00:02.607Z,931
2016-12-09T01:01:13.286Z,931.05
2016-12-09T01:02:23.768Z,931.05
2016-12-09T01:03:34.224Z,931.08
2016-12-09T01:04:44.674Z,931.14
2016-12-09T01:05:55.340Z,931.1
2016-12-09T01:07:05.825Z,931.09
2016-12-09T01:08:16.284Z,931.06
2016-12-09T01:09:26.755Z,931.1
2016-12-09T01:10:37.232Z,931.09
2016-12-09T01:11:47.707Z,931.02
2016-12-09T01:12:58.191Z,931.07
2016-12-09T01:14:08.657Z,931.05
2016-12-09T01:15:33.661Z,931.04
2016-12-09T01:16:58.885Z,931.07
2016-12-09T01:18:09.377Z,931.08
2016-12-09T01:19:19.892Z,931.02
2016-12-09T01:20:30.361Z,931.04
2016-12-09T01:21:40.832Z,931.01
2016-12-09T01:22:51.514Z,930.97
2016-12-09T01:24:02.000Z,930.96
2016-12-09T01:25:12.463Z,930.87
2016-12-09T01:26:22.931Z,930.87
2016-12-09T01:27:33.409Z,930.85
2016-12-09T01:28:44.082Z,930.81
2016-12-09T01:29:54.585Z,930.78
2016-12-09T01:31:05.069Z,930.78
2016-12-09T01:33:40.565Z,930.78
2016-12-09T01:34:51.241Z,930.77
2016-12-09T01:36:01.725Z,930.78
2016-12-09T01:37:12.206Z,930.82
2016-12-09T01:38:37.220Z,930.83
2016-12-09T01:39:47.708Z,930.83
2016-12-09T01:40:58.188Z,930.78
2016-12-09T01:42:08.853Z,930.76
2016-12-09T01:43:19.324Z,930.77
2016-12-09T01:44:30.018Z,930.72
2016-12-09T01:45:40.607Z,930.73
2016-12-09T01:46:51.202Z,930.71
2016-12-09T01:48:01.782Z,930.78
2016-12-09T01:49:12.343Z,930.83
2016-12-09T01:50:23.115Z,930.86
2016-12-09T01:51:33.672Z,930.91
2016-12-09T01:52:44.237Z,930.91
2016-12-09T01:53:54.789Z,930.94
2016-12-09T01:55:05.350Z,930.94
2016-12-09T01:56:15.916Z,930.93
2016-12-09T01:57:26.482Z,930.92
2016-12-09T01:58:37.061Z,930.93
2016-12-09T01:59:47.647Z,930.87
2016-12-09T02:00:58.258Z,930.83
2016-12-09T02:02:09.038Z,930.81
2016-12-09T02:03:19.602Z,930.79
2016-12-09T02:04:30.173Z,930.74
2016-12-09T02:05:40.757Z,930.69
2016-12-09T02:06:51.335Z,930.7
2016-12-09T02:08:02.133Z,930.7
2016-12-09T02:09:12.701Z,930.72
2016-12-09T02:10:23.268Z,930.71
2016-12-09T02:11:33.827Z,930.68
2016-12-09T02:12:58.945Z,930.69
2016-12-09T02:14:09.720Z,930.7
2016-12-09T02:15:20.289Z,930.69
2016-12-09T02:16:30.879Z,930.74
2016-12-09T02:17:41.437Z,930.72
2016-12-09T02:18:52.012Z,930.73
2016-12-09T02:20:02.579Z,930.75
2016-12-09T02:21:13.156Z,930.74
2016-12-09T02:22:23.718Z,930.75
2016-12-09T02:23:34.302Z,930.69
2016-12-09T02:24:45.391Z,930.7
2016-12-09T02:25:55.985Z,930.71
2016-12-09T02:27:06.562Z,930.7
2016-12-09T02:28:17.147Z,930.77
2016-12-09T02:29:27.699Z,930.76
2016-12-09T02:30:38.460Z,930.77
2016-12-09T02:31:49.014Z,930.75
2016-12-09T02:32:59.561Z,930.73
2016-12-09T02:34:24.654Z,930.62
2016-12-09T02:35:49.944Z,930.57
2016-12-09T02:37:15.040Z,930.59
2016-12-09T02:38:25.815Z,930.58
2016-12-09T02:39:36.395Z,930.6
2016-12-09T02:40:46.961Z,930.62
2016-12-09T02:41:57.927Z,930.66
2016-12-09T02:43:08.503Z,930.67
2016-12-09T02:44:19.066Z,930.69
2016-12-09T02:45:44.155Z,930.65
2016-12-09T02:46:54.854Z,930.62
2016-12-09T02:48:05.416Z,930.65
2016-12-09T02:49:15.986Z,930.69
2016-12-09T02:50:26.556Z,930.74
2016-12-09T02:51:37.368Z,930.74
2016-12-09T02:52:47.935Z,930.78
2016-12-09T02:53:58.518Z,930.72
2016-12-09T02:55:09.068Z,930.73
2016-12-09T02:56:19.623Z,930.71
2016-12-09T02:57:30.204Z,930.67
2016-12-09T02:58:40.806Z,930.65
2016-12-09T02:59:51.396Z,930.64
2016-12-09T03:01:01.958Z,930.63
2016-12-09T03:02:12.531Z,930.64
2016-12-09T03:03:23.210Z,930.65
2016-12-09T03:04:33.761Z,930.66
2016-12-09T03:05:44.332Z,930.62
2016-12-09T03:06:54.908Z,930.62
2016-12-09T03:08:05.465Z,930.58
2016-12-09T03:09:16.633Z,930.6
2016-12-09T03:10:27.185Z,930.61
2016-12-09T03:11:37.750Z,930.6
2016-12-09T03:12:48.323Z,930.62
2016-12-09T03:13:58.884Z,930.62
2016-12-09T03:15:09.599Z,930.64
2016-12-09T03:16:20.057Z,930.69
2016-12-09T03:17:30.535Z,930.64
2016-12-09T03:18:41.007Z,930.69
2016-12-09T03:19:51.481Z,930.66
2016-12-09T03:21:02.148Z,930.65
2016-12-09T03:22:12.626Z,930.69
2016-12-09T03:23:23.120Z,930.72
2016-12-09T03:24:33.597Z,930.65
2016-12-09T03:25:44.065Z,930.65
2016-12-09T03:26:54.722Z,930.66
2016-12-09T03:28:05.187Z,930.62
2016-12-09T03:29:15.692Z,930.59
2016-12-09T03:30:26.165Z,930.55
2016-12-09T03:31:37.133Z,930.55
2016-12-09T03:33:02.143Z,930.51
2016-12-09T03:34:12.628Z,930.46
2016-12-09T03:35:23.109Z,930.44
2016-12-09T03:36:33.605Z,930.43
2016-12-09T03:37:44.262Z,930.44
2016-12-09T03:38:54.716Z,930.43
2016-12-09T03:40:05.205Z,930.45
2016-12-09T03:41:15.673Z,930.44
2016-12-09T03:42:26.169Z,930.45
2016-12-09T03:43:36.721Z,930.41
2016-12-09T03:44:47.218Z,930.39
2016-12-09T03:45:57.682Z,930.42
2016-12-09T03:47:08.151Z,930.37
2016-12-09T03:48:18.638Z,930.35
2016-12-09T03:49:29.109Z,930.37
2016-12-09T03:50:39.565Z,930.38
2016-12-09T03:51:50.554Z,930.37
2016-12-09T03:53:01.027Z,930.38
2016-12-09T03:54:11.522Z,930.36
2016-12-09T03:55:22.086Z,930.29
2016-12-09T03:57:57.554Z,930.31
2016-12-09T03:59:08.028Z,930.31
2016-12-09T04:00:18.505Z,930.32
2016-12-09T04:01:28.973Z,930.27
2016-12-09T04:02:39.492Z,930.31
2016-12-09T04:03:49.965Z,930.33
2016-12-09T04:05:00.448Z,930.27
2016-12-09T04:06:10.910Z,930.26
2016-12-09T04:07:21.397Z,930.24
2016-12-09T04:08:31.850Z,930.23
2016-12-09T04:09:42.321Z,930.23
2016-12-09T04:10:52.807Z,930.28
2016-12-09T04:12:03.494Z,930.25
2016-12-09T04:13:13.967Z,930.22
2016-12-09T04:14:24.441Z,930.2
2016-12-09T04:15:34.924Z,930.17
2016-12-09T04:16:45.406Z,930.18
2016-12-09T04:17:56.083Z,930.17
2016-12-09T04:19:06.536Z,930.12
2016-12-09T04:20:17.000Z,930.13
2016-12-09T04:21:27.470Z,930.08
2016-12-09T04:22:37.945Z,930.04
2016-12-09T04:23:48.610Z,930.02
2016-12-09T04:24:59.100Z,930.01
2016-12-09T04:26:09.574Z,930.03
2016-12-09T04:27:20.043Z,930
2016-12-09T04:28:30.511Z,930.01
2016-12-09T04:29:41.176Z,930.04
2016-12-09T04:30:51.629Z,929.99
2016-12-09T04:32:02.101Z,930.02
2016-12-09T04:33:12.565Z,930
2016-12-09T04:34:23.047Z,930.01
2016-12-09T04:35:33.496Z,929.99
2016-12-09T04:36:43.980Z,930
2016-12-09T04:37:54.480Z,929.97
2016-12-09T04:39:04.953Z,929.93
2016-12-09T04:40:15.436Z,929.91
2016-12-09T04:41:25.895Z,929.88
2016-12-09T04:42:36.365Z,929.85
2016-12-09T04:43:46.831Z,929.84
2016-12-09T04:45:11.863Z,929.8
2016-12-09T04:46:22.417Z,929.81
2016-12-09T04:47:33.149Z,929.82
2016-12-09T04:48:43.712Z,929.83
2016-12-09T04:49:54.252Z,929.81
2016-12-09T04:51:04.794Z,929.8
2016-12-09T04:52:15.423Z,929.83
2016-12-09T04:53:25.868Z,929.83
2016-12-09T04:54:36.292Z,929.86
2016-12-09T04:55:46.722Z,929.87
2016-12-09T04:56:57.152Z,929.85
2016-12-09T04:58:07.770Z,929.83
2016-12-09T04:59:18.196Z,929.84
2016-12-09T05:00:28.612Z,929.77
2016-12-09T05:01:39.029Z,929.76
2016-12-09T05:02:49.444Z,929.77
2016-12-09T05:03:59.873Z,929.75
2016-12-09T05:05:10.286Z,929.73
2016-12-09T05:06:20.703Z,929.72
2016-12-09T05:07:31.121Z,929.64
2016-12-09T05:08:41.538Z,929.69
2016-12-09T05:09:52.159Z,929.65
2016-12-09T05:11:02.577Z,929.61
2016-12-09T05:12:12.993Z,929.57
2016-12-09T05:13:23.415Z,929.56
2016-12-09T05:14:48.371Z,929.63
2016-12-09T05:15:58.785Z,929.47
2016-12-09T05:17:09.687Z,929.47
2016-12-09T05:18:20.098Z,929.47
2016-12-09T05:19:30.509Z,929.45
2016-12-09T05:20:41.614Z,929.46
2016-12-09T05:21:52.024Z,929.5
2016-12-09T05:23:02.435Z,929.41
2016-12-09T05:24:12.848Z,929.42
2016-12-09T05:25:23.268Z,929.45
2016-12-09T05:26:33.675Z,929.42
2016-12-09T05:27:44.086Z,929.45
2016-12-09T05:28:54.498Z,929.48
2016-12-09T05:30:05.373Z,929.49
2016-12-09T05:31:15.693Z,929.46
2016-12-09T05:32:26.251Z,929.5
2016-12-09T05:33:36.568Z,929.5
2016-12-09T05:34:46.890Z,929.48
2016-12-09T05:35:57.207Z,929.5
2016-12-09T05:37:07.525Z,929.46
2016-12-09T05:38:17.945Z,929.5
2016-12-09T05:39:28.261Z,929.51
2016-12-09T05:40:38.578Z,929.48
2016-12-09T05:41:48.900Z,929.42
2016-12-09T05:42:59.223Z,929.44
2016-12-09T05:44:09.544Z,929.38
2016-12-09T05:46:44.784Z,929.4
2016-12-09T05:47:55.100Z,929.37
2016-12-09T05:49:05.419Z,929.33
2016-12-09T05:50:15.744Z,929.37
2016-12-09T05:51:40.630Z,929.37
2016-12-09T05:52:50.948Z,929.37
2016-12-09T05:54:01.272Z,929.41
2016-12-09T05:55:11.596Z,929.36
2016-12-09T05:56:21.913Z,929.38
2016-12-09T05:57:32.233Z,929.34
2016-12-09T05:58:42.558Z,929.32
2016-12-09T06:00:07.456Z,929.28
2016-12-09T06:01:18.112Z,929.28
2016-12-09T06:02:28.552Z,929.34
2016-12-09T06:03:38.987Z,929.27
2016-12-09T06:04:49.422Z,929.27
2016-12-09T06:05:59.863Z,929.28
2016-12-09T06:07:10.300Z,929.26
2016-12-09T06:08:20.740Z,929.24
2016-12-09T06:09:31.183Z,929.2
2016-12-09T06:10:41.630Z,929.23
2016-12-09T06:11:52.272Z,929.21
2016-12-09T06:13:02.708Z,929.14
2016-12-09T06:14:13.145Z,929.11
2016-12-09T06:15:23.580Z,929.03
2016-12-09T06:16:34.021Z,929.06
2016-12-09T06:17:44.656Z,929.07
2016-12-09T06:18:55.093Z,929.09
2016-12-09T06:20:05.530Z,929.06
2016-12-09T06:21:15.964Z,929.06
2016-12-09T06:22:26.401Z,929.07
2016-12-09T06:23:36.838Z,929.01
2016-12-09T06:24:47.276Z,929.01
2016-12-09T06:25:57.711Z,928.98
2016-12-09T06:27:08.153Z,928.88
2016-12-09T06:29:43.780Z,928.99
2016-12-09T06:30:54.215Z,928.98
2016-12-09T06:32:05.142Z,929.03
2016-12-09T06:33:15.580Z,929.03
2016-12-09T06:34:26.213Z,929.06
2016-12-09T06:35:36.530Z,929.12
2016-12-09T06:36:46.853Z,929.05
2016-12-09T06:37:57.170Z,929.05
2016-12-09T06:39:07.497Z,929.04
2016-12-09T06:40:32.391Z,929.02
2016-12-09T06:41:42.711Z,929.05
2016-12-09T06:42:53.030Z,929.03
2016-12-09T06:44:03.347Z,929.04
2016-12-09T06:45:13.865Z,929.05
2016-12-09T06:46:24.187Z,929.05
2016-12-09T06:47:34.502Z,928.98
2016-12-09T06:48:44.821Z,929
2016-12-09T06:49:55.138Z,928.92
2016-12-09T06:51:05.660Z,928.88
2016-12-09T06:52:15.978Z,928.86
2016-12-09T06:53:40.863Z,928.86
2016-12-09T06:54:51.209Z,928.88
2016-12-09T06:56:01.532Z,928.89
2016-12-09T06:57:12.060Z,928.92
2016-12-09T06:58:22.375Z,928.92
2016-12-09T06:59:32.692Z,928.87
2016-12-09T07:00:43.017Z,928.89
2016-12-09T07:01:53.538Z,928.86
2016-12-09T07:03:03.858Z,928.88
2016-12-09T07:04:14.181Z,928.89
2016-12-09T07:05:24.495Z,928.87
2016-12-09T07:06:34.810Z,928.83
2016-12-09T07:07:45.330Z,928.84
2016-12-09T07:08:55.650Z,928.79
2016-12-09T07:10:05.968Z,928.8
2016-12-09T07:11:16.288Z,928.78
2016-12-09T07:12:26.604Z,928.81
2016-12-09T07:13:37.125Z,928.73
2016-12-09T07:14:47.448Z,928.67
2016-12-09T07:15:57.772Z,928.7
2016-12-09T07:17:08.091Z,928.64
2016-12-09T07:18:18.416Z,928.6
2016-12-09T07:19:28.737Z,928.56
2016-12-09T07:20:39.057Z,928.58
2016-12-09T07:21:49.377Z,928.53
2016-12-09T07:22:59.695Z,928.51
2016-12-09T07:24:10.012Z,928.52
2016-12-09T07:25:20.534Z,928.53
2016-12-09T07:26:30.850Z,928.52
2016-12-09T07:27:41.164Z,928.51
2016-12-09T07:28:51.482Z,928.57
2016-12-09T07:30:01.802Z,928.55
2016-12-09T07:31:12.118Z,928.49
2016-12-09T07:32:22.437Z,928.53
2016-12-09T07:33:32.756Z,928.55
2016-12-09T07:34:43.077Z,928.6
2016-12-09T07:35:53.392Z,928.5
2016-12-09T07:37:03.712Z,928.6
2016-12-09T07:38:14.026Z,928.6
2016-12-09T07:39:24.340Z,928.58
2016-12-09T07:40:34.654Z,928.54
2016-12-09T07:41:44.972Z,928.47
2016-12-09T07:42:55.489Z,928.48
2016-12-09T07:44:05.806Z,928.42
2016-12-09T07:45:16.125Z,928.43
2016-12-09T07:46:26.439Z,928.35
2016-12-09T07:47:51.330Z,928.39
2016-12-09T07:49:01.849Z,928.37
2016-12-09T07:50:12.167Z,928.41
2016-12-09T07:51:22.483Z,928.38
2016-12-09T07:52:32.800Z,928.41
2016-12-09T07:53:43.317Z,928.42
2016-12-09T07:54:53.632Z,928.44
2016-12-09T07:56:03.955Z,928.43
2016-12-09T07:57:14.269Z,928.4
2016-12-09T07:58:24.595Z,928.36
2016-12-09T07:59:34.912Z,928.34
2016-12-09T08:00:45.235Z,928.33
2016-12-09T08:02:10.126Z,928.33
2016-12-09T08:03:20.445Z,928.33
2016-12-09T08:04:30.759Z,928.32
2016-12-09T08:05:41.280Z,928.32
2016-12-09T08:06:51.599Z,928.38
2016-12-09T08:08:01.919Z,928.37
2016-12-09T08:09:12.241Z,928.39
2016-12-09T08:10:22.755Z,928.31
2016-12-09T08:11:33.073Z,928.34
2016-12-09T08:12:43.395Z,928.32
2016-12-09T08:13:53.711Z,928.34
2016-12-09T08:15:04.024Z,928.34
2016-12-09T08:16:14.544Z,928.37
2016-12-09T08:17:24.859Z,928.36
2016-12-09T08:18:35.177Z,928.37
2016-12-09T08:20:00.061Z,928.37
2016-12-09T08:21:10.381Z,928.41
2016-12-09T08:22:20.899Z,928.38
2016-12-09T08:23:31.217Z,928.42
2016-12-09T08:24:41.539Z,928.42
2016-12-09T08:25:51.860Z,928.4
2016-12-09T08:27:02.376Z,928.39
2016-12-09T08:28:12.696Z,928.41
2016-12-09T08:29:37.598Z,928.44
2016-12-09T08:30:48.015Z,928.43
2016-12-09T08:32:13.200Z,928.44
2016-12-09T08:33:23.608Z,928.42
2016-12-09T08:34:34.020Z,928.38
2016-12-09T08:35:44.427Z,928.32
2016-12-09T08:36:54.832Z,928.35
2016-12-09T08:38:05.240Z,928.35
2016-12-09T08:39:15.647Z,928.32
2016-12-09T08:40:26.057Z,928.36
2016-12-09T08:41:36.467Z,928.33
2016-12-09T08:43:01.425Z,928.34
2016-12-09T08:44:11.838Z,928.29
2016-12-09T08:45:22.247Z,928.34
2016-12-09T08:46:32.656Z,928.26
2016-12-09T08:47:43.061Z,928.32
2016-12-09T08:48:53.676Z,928.32
2016-12-09T08:50:04.084Z,928.33
2016-12-09T08:51:14.494Z,928.35
2016-12-09T08:52:24.899Z,928.37
2016-12-09T08:53:35.315Z,928.33
2016-12-09T08:54:45.724Z,928.36
2016-12-09T08:55:56.188Z,928.4
2016-12-09T08:57:06.716Z,928.35
2016-12-09T08:58:17.243Z,928.38
2016-12-09T08:59:27.768Z,928.43
2016-12-09T09:00:38.498Z,928.41
2016-12-09T09:01:49.053Z,928.44
2016-12-09T09:02:59.582Z,928.51
2016-12-09T09:04:10.112Z,928.53
2016-12-09T09:05:20.637Z,928.57
2016-12-09T09:06:31.164Z,928.6
2016-12-09T09:07:56.219Z,928.65
2016-12-09T09:09:06.747Z,928.63
2016-12-09T09:10:17.276Z,928.63
2016-12-09T09:11:27.804Z,928.62
2016-12-09T09:12:38.534Z,928.62
2016-12-09T09:13:49.061Z,928.61
2016-12-09T09:14:59.589Z,928.61
2016-12-09T09:16:10.120Z,928.61
2016-12-09T09:17:20.647Z,928.66
2016-12-09T09:18:31.178Z,928.63
2016-12-09T09:19:41.705Z,928.63
2016-12-09T09:20:52.234Z,928.65
2016-12-09T09:22:02.765Z,928.68
2016-12-09T09:23:13.494Z,928.69
2016-12-09T09:24:24.019Z,928.71
2016-12-09T09:25:34.550Z,928.73
2016-12-09T09:26:45.083Z,928.79
2016-12-09T09:27:55.613Z,928.77
2016-12-09T09:29:06.648Z,928.79
2016-12-09T09:30:17.173Z,928.86
2016-12-09T09:31:27.699Z,928.87
2016-12-09T09:32:38.230Z,928.91
2016-12-09T09:33:48.759Z,928.95
2016-12-09T09:34:59.487Z,928.94
2016-12-09T09:36:10.018Z,929.03
2016-12-09T09:37:20.576Z,929
2016-12-09T09:38:31.110Z,929
2016-12-09T09:39:41.639Z,929.03
2016-12-09T09:40:52.168Z,928.99
2016-12-09T09:42:02.696Z,929.06
2016-12-09T09:43:13.727Z,929.09
2016-12-09T09:44:24.259Z,929.14
2016-12-09T09:45:34.791Z,929.17
2016-12-09T09:46:45.517Z,929.21
2016-12-09T09:47:56.048Z,929.24
2016-12-09T09:49:06.576Z,929.29
2016-12-09T09:50:31.637Z,929.3
2016-12-09T09:51:42.163Z,929.34
2016-12-09T09:52:52.895Z,929.34
2016-12-09T09:54:03.431Z,929.36
2016-12-09T09:55:14.479Z,929.34
2016-12-09T09:56:25.009Z,929.36
2016-12-09T09:57:35.740Z,929.34
2016-12-09T09:58:46.272Z,929.35
2016-12-09T09:59:56.800Z,929.35
2016-12-09T10:01:07.329Z,929.36
2016-12-09T10:02:17.857Z,929.42
2016-12-09T10:03:28.383Z,929.45
2016-12-09T10:04:38.913Z,929.48
2016-12-09T10:05:49.448Z,929.49
2016-12-09T10:07:14.503Z,929.48
2016-12-09T10:08:25.031Z,929.5
2016-12-09T10:09:35.760Z,929.5
2016-12-09T10:10:46.289Z,929.54
2016-12-09T10:11:56.826Z,929.56
2016-12-09T10:13:07.355Z,929.6
2016-12-09T10:14:17.886Z,929.58
2016-12-09T10:15:28.416Z,929.66
2016-12-09T10:16:38.944Z,929.63
2016-12-09T10:18:04.005Z,929.65
2016-12-09T10:19:14.532Z,929.61
2016-12-09T10:20:25.060Z,929.59
2016-12-09T10:21:35.587Z,929.56
2016-12-09T10:22:46.117Z,929.62
2016-12-09T10:23:56.644Z,929.61
2016-12-09T10:25:07.374Z,929.68
2016-12-09T10:26:17.904Z,929.67
2016-12-09T10:27:28.441Z,929.68
2016-12-09T10:28:38.970Z,929.69
2016-12-09T10:29:49.499Z,929.7
2016-12-09T10:31:00.230Z,929.68
2016-12-09T10:32:10.760Z,929.71
2016-12-09T10:34:46.374Z,929.73
2016-12-09T10:35:57.395Z,929.79
2016-12-09T10:37:08.128Z,929.77
2016-12-09T10:38:18.681Z,929.83
2016-12-09T10:39:29.199Z,929.83
2016-12-09T10:40:39.612Z,929.91
2016-12-09T10:41:50.221Z,929.93
2016-12-09T10:43:00.638Z,929.95
2016-12-09T10:44:11.048Z,930
2016-12-09T10:45:21.459Z,930.08
2016-12-09T10:46:31.872Z,930.1
2016-12-09T10:47:42.281Z,930.12
2016-12-09T10:48:52.699Z,930.15
2016-12-09T10:50:03.108Z,930.17
2016-12-09T10:51:13.529Z,930.19
2016-12-09T10:52:23.941Z,930.16
2016-12-09T10:53:34.552Z,930.13
2016-12-09T10:54:59.524Z,930.09
2016-12-09T10:56:09.938Z,930.1
2016-12-09T10:57:20.347Z,930.11
2016-12-09T10:58:30.757Z,930.1
2016-12-09T10:59:41.270Z,930.1
2016-12-09T11:00:51.686Z,930.13
2016-12-09T11:02:02.098Z,930.16
2016-12-09T11:03:12.513Z,930.13
2016-12-09T11:04:22.927Z,930.15
2016-12-09T11:05:33.342Z,930.14
2016-12-09T11:06:43.751Z,930.16
2016-12-09T11:07:54.645Z,930.14
2016-12-09T11:09:05.577Z,930.16
2016-12-09T11:10:16.193Z,930.19
2016-12-09T11:11:26.608Z,930.15
2016-12-09T11:12:37.010Z,930.18
2016-12-09T11:13:47.417Z,930.18
2016-12-09T11:15:12.379Z,930.23
2016-12-09T11:16:22.791Z,930.23
2016-12-09T11:17:33.201Z,930.23
2016-12-09T11:18:43.611Z,930.24
2016-12-09T11:19:54.018Z,930.23
2016-12-09T11:21:04.628Z,930.21
2016-12-09T11:22:15.039Z,930.23
2016-12-09T11:23:25.462Z,930.2
2016-12-09T11:24:35.877Z,930.21
2016-12-09T11:25:46.290Z,930.27
2016-12-09T11:26:56.704Z,930.24
2016-12-09T11:28:07.112Z,930.31
2016-12-09T11:29:32.100Z,930.24
2016-12-09T11:30:42.510Z,930.28
2016-12-09T11:32:07.672Z,930.28
2016-12-09T11:33:18.089Z,930.26
2016-12-09T11:34:28.499Z,930.27
2016-12-09T11:35:38.910Z,930.26
2016-12-09T11:36:49.335Z,930.27
2016-12-09T11:38:14.491Z,930.28
2016-12-09T11:39:39.491Z,930.3
2016-12-09T11:40:49.904Z,930.36
2016-12-09T11:42:00.316Z,930.37
2016-12-09T11:43:10.924Z,930.42
2016-12-09T11:44:21.332Z,930.4
2016-12-09T11:45:32.228Z,930.39
2016-12-09T11:46:42.635Z,930.44
2016-12-09T11:47:53.045Z,930.47
2016-12-09T11:49:03.675Z,930.55
2016-12-09T11:50:14.205Z,930.55
2016-12-09T11:51:24.746Z,930.56
2016-12-09T11:54:00.332Z,930.55
2016-12-09T11:55:10.862Z,930.52
2016-12-09T11:56:35.922Z,930.56
2016-12-09T11:57:46.945Z,930.54
2016-12-09T11:58:57.504Z,930.55
2016-12-09T12:00:22.563Z,930.54
2016-12-09T12:01:33.120Z,930.56
2016-12-09T12:02:44.175Z,930.56
2016-12-09T12:03:54.706Z,930.6
2016-12-09T12:05:05.239Z,930.61
2016-12-09T12:06:15.774Z,930.62
2016-12-09T12:07:26.304Z,930.63
2016-12-09T12:08:36.831Z,930.66
2016-12-09T12:09:47.364Z,930.63
2016-12-09T12:10:58.095Z,930.69
2016-12-09T12:12:08.631Z,930.7
2016-12-09T12:13:19.669Z,930.66
2016-12-09T12:14:45.144Z,930.63
2016-12-09T12:15:55.586Z,930.65
2016-12-09T12:17:06.026Z,930.7
2016-12-09T12:18:16.464Z,930.7
2016-12-09T12:19:26.903Z,930.69
2016-12-09T12:20:37.370Z,930.65
2016-12-09T12:21:47.807Z,930.58
2016-12-09T12:22:58.247Z,930.55
2016-12-09T12:24:09.174Z,930.56
2016-12-09T12:25:19.612Z,930.53
2016-12-09T12:26:30.049Z,930.56
2016-12-09T12:27:40.524Z,930.53
2016-12-09T12:28:50.971Z,930.55
2016-12-09T12:30:01.409Z,930.48
2016-12-09T12:31:11.856Z,930.44
2016-12-09T12:32:22.297Z,930.5
2016-12-09T12:33:32.934Z,930.47
2016-12-09T12:34:43.376Z,930.47
2016-12-09T12:35:53.816Z,930.52
2016-12-09T12:37:04.255Z,930.58
2016-12-09T12:38:14.691Z,930.54
2016-12-09T12:39:25.334Z,930.51
2016-12-09T12:40:50.320Z,930.51
2016-12-09T12:42:00.772Z,930.54
2016-12-09T12:43:11.214Z,930.48
2016-12-09T12:44:21.657Z,930.55
2016-12-09T12:45:32.101Z,930.55
2016-12-09T12:46:43.035Z,930.6
2016-12-09T12:47:53.473Z,930.6
2016-12-09T12:49:03.913Z,930.63
2016-12-09T12:50:14.754Z,930.64
2016-12-09T12:51:25.190Z,930.63
2016-12-09T12:52:35.661Z,930.62
2016-12-09T12:53:46.099Z,930.66
2016-12-09T12:54:56.537Z,930.62
2016-12-09T12:56:06.982Z,930.67
2016-12-09T12:58:42.968Z,930.66
2016-12-09T12:59:53.502Z,930.65
2016-12-09T13:01:04.084Z,930.64
2016-12-09T13:02:14.623Z,930.68
2016-12-09T13:03:25.153Z,930.73
